Time;durP1;ratioP1;P1;durP2;ratioP2;P2;SDS_P1;SDS_P2;PMS_P1;PMS_P2;Temp;Humidity;BMP_temperature;BMP_pressure;BME280_temperature;BME280_humidity;BME280_pressure;Samples;Min_cycle;Max_cycle;Signal;HPM_P1;HPM_P2
2022/08/23 00:01:20;;;;;;;8.98;5.97;;;;;;;;;;5007151;28;20128;-63
2022/08/23 00:03:46;;;;;;;9.18;4.95;;;;;;;;;;5005379;28;20044;-62
2022/08/23 00:06:13;;;;;;;7.40;5.85;;;;;;;;;;4989526;28;20051;-63
2022/08/23 00:08:39;;;;;;;8.90;5.60;;;;;;;;;;5003128;28;20042;-63
2022/08/23 00:11:05;;;;;;;8.65;5.50;;;;;;;;;;5010109;28;20038;-62
2022/08/23 00:13:32;;;;;;;8.18;5.80;;;;;;;;;;5007510;28;20034;-62
2022/08/23 00:15:59;;;;;;;9.60;5.43;;;;;;;;;;5009490;28;20046;-63
2022/08/23 00:18:25;;;;;;;9.90;6.25;;;;;;;;;;5007552;28;20046;-63
2022/08/23 00:20:51;;;;;;;7.57;5.20;;;;;;;;;;5004400;28;20066;-62
2022/08/23 00:23:17;;;;;;;10.45;6.60;;;;;;;;;;5012750;28;20046;-63
2022/08/23 00:25:44;;;;;;;11.48;5.63;;;;;;;;;;5009951;28;20487;-63
2022/08/23 00:28:10;;;;;;;13.25;7.28;;;;;;;;;;5013956;28;20038;-63
2022/08/23 00:30:36;;;;;;;9.57;6.72;;;;;;;;;;5011883;28;20045;-63
2022/08/23 00:33:02;;;;;;;7.38;6.68;;;;;;;;;;5013988;28;20446;-62
2022/08/23 00:35:28;;;;;;;11.80;9.27;;;;;;;;;;5010816;28;20081;-63
2022/08/23 00:37:57;;;;;;;17.55;8.90;;;;;;;;;;5003420;28;20042;-62
2022/08/23 00:40:23;;;;;;;7.97;6.70;;;;;;;;;;4994759;28;20085;-62
2022/08/23 00:48:23;;;;;;;8.05;5.70;;;;;;;;;;5001948;28;20046;-63
2022/08/23 00:50:53;;;;;;;7.40;6.13;;;;;;;;;;5007112;28;20053;-62
2022/08/23 00:53:23;;;;;;;10.30;5.57;;;;;;;;;;5003623;28;20129;-63
2022/08/23 00:55:50;;;;;;;7.55;5.85;;;;;;;;;;5008028;28;20045;-62
2022/08/23 00:58:18;;;;;;;9.25;6.53;;;;;;;;;;5007329;28;20053;-62
2022/08/23 01:00:44;;;;;;;9.38;7.25;;;;;;;;;;5010709;28;20061;-63
2022/08/23 01:03:10;;;;;;;8.57;7.47;;;;;;;;;;5005559;28;20038;-63
2022/08/23 01:05:48;;;;;;;10.15;7.70;;;;;;;;;;5002886;28;20064;-62
2022/08/23 01:08:14;;;;;;;10.70;7.20;;;;;;;;;;5005704;28;20034;-63
2022/08/23 01:10:42;;;;;;;10.30;7.15;;;;;;;;;;5011481;28;20088;-62
2022/08/23 01:13:11;;;;;;;8.68;5.57;;;;;;;;;;5013151;28;20045;-63
2022/08/23 01:15:40;;;;;;;8.50;5.15;;;;;;;;;;5009557;28;20042;-63
2022/08/23 01:18:08;;;;;;;8.32;5.28;;;;;;;;;;5004192;28;20496;-63
2022/08/23 01:20:41;;;;;;;6.78;5.30;;;;;;;;;;5005580;28;20089;-63
2022/08/23 01:23:16;;;;;;;8.60;5.65;;;;;;;;;;5003404;28;20046;-63
2022/08/23 01:25:43;;;;;;;7.70;5.63;;;;;;;;;;5010249;28;20108;-63
2022/08/23 01:28:09;;;;;;;7.00;5.72;;;;;;;;;;5010107;28;20048;-63
2022/08/23 01:30:37;;;;;;;7.60;5.95;;;;;;;;;;5007385;28;20697;-63
2022/08/23 01:33:06;;;;;;;6.07;5.03;;;;;;;;;;5005971;28;20041;-62
2022/08/23 01:35:40;;;;;;;9.32;6.00;;;;;;;;;;4986642;28;20088;-63
2022/08/23 01:38:07;;;;;;;6.95;6.10;;;;;;;;;;5003776;28;20042;-63
2022/08/23 01:40:33;;;;;;;8.68;6.75;;;;;;;;;;4992673;28;20041;-63
2022/08/23 01:43:00;;;;;;;9.35;7.00;;;;;;;;;;5004813;28;20124;-63
2022/08/23 01:45:27;;;;;;;9.20;7.68;;;;;;;;;;5008131;28;20140;-63
2022/08/23 01:47:53;;;;;;;10.55;8.35;;;;;;;;;;4984385;28;20049;-63
2022/08/23 01:50:19;;;;;;;10.20;7.72;;;;;;;;;;4993758;28;20677;-63
2022/08/23 01:52:46;;;;;;;11.85;7.35;;;;;;;;;;5004007;28;20038;-63
2022/08/23 01:55:12;;;;;;;9.68;7.65;;;;;;;;;;5008309;28;20491;-63
2022/08/23 01:57:40;;;;;;;12.73;8.90;;;;;;;;;;5012562;28;20407;-62
2022/08/23 02:00:06;;;;;;;11.85;9.73;;;;;;;;;;4992003;28;20103;-63
2022/08/23 02:02:32;;;;;;;13.02;9.40;;;;;;;;;;5009798;28;20038;-62
2022/08/23 02:04:58;;;;;;;11.55;9.02;;;;;;;;;;4999457;28;20046;-62
2022/08/23 02:07:28;;;;;;;9.52;8.32;;;;;;;;;;5004228;28;20488;-63
2022/08/23 02:09:54;;;;;;;8.98;7.07;;;;;;;;;;5012634;28;20069;-63
2022/08/23 02:12:20;;;;;;;12.50;9.50;;;;;;;;;;5010846;28;20490;-63
2022/08/23 02:14:46;;;;;;;10.57;9.40;;;;;;;;;;4998779;28;20117;-62
2022/08/23 02:17:14;;;;;;;10.88;9.02;;;;;;;;;;5011821;28;20515;-63
2022/08/23 02:19:41;;;;;;;13.30;10.68;;;;;;;;;;5011336;28;20044;-63
2022/08/23 02:22:07;;;;;;;14.38;9.88;;;;;;;;;;5010621;28;20659;-63
2022/08/23 02:24:34;;;;;;;12.85;9.88;;;;;;;;;;5001746;28;20105;-63
2022/08/23 02:27:02;;;;;;;10.52;8.48;;;;;;;;;;4998786;28;20038;-63
2022/08/23 02:29:29;;;;;;;12.30;8.80;;;;;;;;;;5008683;28;20084;-63
2022/08/23 02:31:55;;;;;;;9.90;8.88;;;;;;;;;;5010816;28;20382;-63
2022/08/23 02:34:22;;;;;;;8.85;7.72;;;;;;;;;;5010623;28;20042;-63
2022/08/23 02:36:48;;;;;;;11.60;8.38;;;;;;;;;;5006108;28;20034;-63
2022/08/23 02:39:15;;;;;;;8.95;7.95;;;;;;;;;;4992440;28;20058;-63
2022/08/23 02:41:41;;;;;;;11.30;8.60;;;;;;;;;;5004883;28;20046;-63
2022/08/23 02:44:08;;;;;;;11.75;9.45;;;;;;;;;;5009741;28;20099;-63
2022/08/23 02:46:34;;;;;;;12.73;11.07;;;;;;;;;;5009363;28;20045;-63
2022/08/23 02:49:00;;;;;;;16.63;14.15;;;;;;;;;;5003936;28;20050;-63
2022/08/23 02:51:26;;;;;;;18.38;16.50;;;;;;;;;;5005370;28;20399;-63
2022/08/23 02:53:52;;;;;;;19.48;17.38;;;;;;;;;;5003926;28;20422;-63
2022/08/23 02:56:19;;;;;;;18.38;15.73;;;;;;;;;;5010928;28;20060;-63
2022/08/23 02:58:45;;;;;;;13.68;10.73;;;;;;;;;;5010096;28;20099;-63
2022/08/23 03:01:15;;;;;;;9.52;7.50;;;;;;;;;;5004921;28;20046;-63
2022/08/23 03:03:41;;;;;;;11.63;6.32;;;;;;;;;;5010929;28;20042;-63
2022/08/23 03:06:07;;;;;;;6.25;5.65;;;;;;;;;;4989814;28;20056;-63
2022/08/23 03:08:33;;;;;;;6.50;5.90;;;;;;;;;;5003554;28;20042;-63
2022/08/23 03:10:59;;;;;;;8.60;6.50;;;;;;;;;;5010024;28;20073;-63
2022/08/23 03:13:25;;;;;;;9.45;6.57;;;;;;;;;;5000638;28;20088;-63
2022/08/23 03:15:51;;;;;;;9.02;7.57;;;;;;;;;;5004666;28;20492;-62
2022/08/23 03:18:17;;;;;;;9.55;6.00;;;;;;;;;;5010668;28;20499;-62
2022/08/23 03:20:44;;;;;;;7.38;5.97;;;;;;;;;;5005433;28;20052;-62
2022/08/23 03:23:10;;;;;;;6.07;5.13;;;;;;;;;;5005436;28;20096;-63
2022/08/23 03:25:37;;;;;;;6.78;5.40;;;;;;;;;;5001816;28;20041;-63
2022/08/23 03:28:04;;;;;;;8.70;7.80;;;;;;;;;;5008871;28;20092;-63
2022/08/23 03:30:30;;;;;;;7.90;7.10;;;;;;;;;;5006166;28;20034;-63
2022/08/23 03:32:56;;;;;;;7.22;6.53;;;;;;;;;;5003421;28;20229;-63
2022/08/23 03:35:24;;;;;;;4.07;3.58;;;;;;;;;;5005212;28;20038;-63
2022/08/23 03:37:52;;;;;;;5.93;5.32;;;;;;;;;;4999363;28;20049;-63
2022/08/23 03:40:19;;;;;;;6.20;5.60;;;;;;;;;;5005680;28;20056;-63
2022/08/23 03:42:45;;;;;;;6.45;4.97;;;;;;;;;;5007165;28;20420;-63
2022/08/23 03:45:11;;;;;;;6.45;5.07;;;;;;;;;;5008099;28;20038;-63
2022/08/23 03:47:38;;;;;;;8.35;6.40;;;;;;;;;;5010799;28;20503;-63
2022/08/23 03:50:04;;;;;;;4.85;4.38;;;;;;;;;;5007751;28;20116;-63
2022/08/23 03:52:30;;;;;;;5.68;4.60;;;;;;;;;;4997005;28;20038;-63
2022/08/23 03:54:57;;;;;;;3.40;2.97;;;;;;;;;;4998285;28;20061;-63
2022/08/23 03:57:23;;;;;;;3.15;2.50;;;;;;;;;;4993356;28;20052;-63
2022/08/23 03:59:49;;;;;;;3.67;3.15;;;;;;;;;;5013463;28;20128;-63
2022/08/23 04:02:15;;;;;;;5.45;4.20;;;;;;;;;;5033815;23;20185;-63
2022/08/23 04:04:41;;;;;;;4.30;3.90;;;;;;;;;;5028099;28;20755;-64
2022/08/23 04:07:07;;;;;;;9.05;5.57;;;;;;;;;;5032211;28;20384;-64
2022/08/23 04:09:33;;;;;;;5.50;4.20;;;;;;;;;;5030115;28;20040;-64
2022/08/23 04:11:59;;;;;;;7.13;6.43;;;;;;;;;;5029515;28;20414;-64
2022/08/23 04:14:26;;;;;;;8.35;7.32;;;;;;;;;;5032293;28;20383;-64
2022/08/23 04:16:52;;;;;;;9.27;8.02;;;;;;;;;;5033038;28;20041;-64
2022/08/23 04:19:18;;;;;;;8.10;7.32;;;;;;;;;;5034669;28;20394;-63
2022/08/23 04:21:47;;;;;;;8.70;7.80;;;;;;;;;;5034092;28;20041;-63
2022/08/23 04:24:13;;;;;;;10.50;9.05;;;;;;;;;;5033156;28;20051;-64
2022/08/23 04:26:40;;;;;;;8.05;7.25;;;;;;;;;;5031214;28;20495;-64
2022/08/23 04:29:06;;;;;;;7.95;7.18;;;;;;;;;;5033191;28;20560;-63
2022/08/23 04:31:32;;;;;;;17.00;9.02;;;;;;;;;;5025692;28;20040;-64
2022/08/23 04:33:58;;;;;;;7.55;6.78;;;;;;;;;;5033195;28;20128;-63
2022/08/23 04:36:24;;;;;;;7.68;6.18;;;;;;;;;;5032090;28;20076;-63
2022/08/23 04:38:51;;;;;;;24.35;9.35;;;;;;;;;;5030633;28;20049;-63
2022/08/23 04:44:04;;;;;;;10.70;8.70;;;;;;;;;;5025706;28;20065;-63
2022/08/23 04:46:30;;;;;;;9.10;8.20;;;;;;;;;;5031321;28;20117;-63
2022/08/23 04:48:56;;;;;;;8.13;7.30;;;;;;;;;;5029394;28;20120;-64
2022/08/23 04:51:22;;;;;;;7.00;6.30;;;;;;;;;;5028387;28;20467;-63
2022/08/23 04:53:48;;;;;;;7.60;6.90;;;;;;;;;;5028602;28;20033;-63
2022/08/23 04:56:14;;;;;;;8.35;7.55;;;;;;;;;;5031055;28;20418;-63
2022/08/23 04:58:40;;;;;;;7.55;6.80;;;;;;;;;;5032712;28;20076;-63
2022/08/23 05:01:09;;;;;;;6.35;5.75;;;;;;;;;;5031846;28;20818;-63
2022/08/23 05:03:35;;;;;;;6.85;6.25;;;;;;;;;;5025490;28;20401;-63
2022/08/23 05:06:03;;;;;;;6.72;6.00;;;;;;;;;;5017931;28;20050;-63
2022/08/23 05:08:29;;;;;;;7.70;6.95;;;;;;;;;;5031423;28;20104;-63
2022/08/23 05:10:55;;;;;;;9.65;8.52;;;;;;;;;;5030811;28;20038;-63
2022/08/23 05:13:21;;;;;;;11.77;9.27;;;;;;;;;;5032130;28;20037;-63
2022/08/23 05:15:50;;;;;;;10.55;8.52;;;;;;;;;;5033429;28;20121;-63
2022/08/23 05:18:16;;;;;;;11.70;9.27;;;;;;;;;;5027159;28;20045;-63
2022/08/23 05:20:42;;;;;;;13.45;10.27;;;;;;;;;;5030158;28;20037;-63
2022/08/23 05:23:08;;;;;;;13.40;11.35;;;;;;;;;;5030500;28;20095;-63
2022/08/23 05:25:49;;;;;;;14.95;10.63;;;;;;;;;;5031727;28;20419;-63
2022/08/23 05:28:20;;;;;;;15.68;11.50;;;;;;;;;;5032821;28;20673;-63
2022/08/23 05:30:46;;;;;;;;;;;;;;;;;;5031936;28;20034;-63
2022/08/23 05:33:12;;;;;;;14.13;10.23;;;;;;;;;;5030528;28;19916;-63
2022/08/23 05:35:39;;;;;;;15.50;12.38;;;;;;;;;;5033035;28;20037;-63
2022/08/23 05:38:05;;;;;;;15.32;12.35;;;;;;;;;;5032168;28;20124;-63
2022/08/23 05:40:31;;;;;;;13.43;11.38;;;;;;;;;;5024473;28;20038;-63
2022/08/23 05:42:57;;;;;;;15.07;12.38;;;;;;;;;;5030390;28;20041;-63
2022/08/23 05:45:23;;;;;;;15.38;12.82;;;;;;;;;;5030580;28;20064;-63
2022/08/23 05:47:49;;;;;;;17.65;12.60;;;;;;;;;;5029362;28;20037;-63
2022/08/23 05:50:15;;;;;;;17.15;12.48;;;;;;;;;;5031372;28;20030;-63
2022/08/23 05:52:41;;;;;;;14.80;11.95;;;;;;;;;;5029948;28;20026;-63
2022/08/23 05:55:07;;;;;;;14.63;12.30;;;;;;;;;;5031419;28;20037;-63
2022/08/23 05:57:39;;;;;;;16.65;11.90;;;;;;;;;;5031791;28;20041;-63
2022/08/23 06:00:09;;;;;;;14.32;12.00;;;;;;;;;;5032098;28;20042;-63
2022/08/23 06:02:35;;;;;;;17.98;12.50;;;;;;;;;;5021895;28;20095;-63
2022/08/23 06:05:01;;;;;;;16.27;13.18;;;;;;;;;;5025372;28;20033;-63
2022/08/23 06:07:27;;;;;;;15.43;13.82;;;;;;;;;;5026738;28;20123;-63
2022/08/23 06:09:54;;;;;;;16.65;12.77;;;;;;;;;;5026414;28;20478;-63
2022/08/23 06:12:20;;;;;;;18.25;14.30;;;;;;;;;;5029580;28;20191;-63
2022/08/23 06:14:46;;;;;;;20.48;13.95;;;;;;;;;;5045696;28;20042;-63
2022/08/23 06:17:12;;;;;;;19.55;14.93;;;;;;;;;;5025721;28;20056;-63
2022/08/23 06:19:38;;;;;;;18.08;14.35;;;;;;;;;;5025890;28;20038;-63
2022/08/23 06:22:04;;;;;;;18.55;15.07;;;;;;;;;;5024601;28;20041;-63
2022/08/23 06:24:30;;;;;;;16.95;14.77;;;;;;;;;;5026510;28;20041;-63
2022/08/23 06:26:56;;;;;;;19.65;14.82;;;;;;;;;;5029525;28;20053;-63
2022/08/23 06:29:22;;;;;;;19.60;15.27;;;;;;;;;;5027956;28;20026;-63
2022/08/23 06:31:49;;;;;;;17.67;13.85;;;;;;;;;;5023309;28;20045;-63
2022/08/23 06:34:21;;;;;;;21.13;14.82;;;;;;;;;;5013635;28;20037;-63
2022/08/23 06:36:49;;;;;;;20.80;14.55;;;;;;;;;;5011043;28;20049;-63
2022/08/23 06:39:16;;;;;;;22.50;15.70;;;;;;;;;;5011558;28;20060;-63
2022/08/23 06:41:42;;;;;;;19.17;15.52;;;;;;;;;;5019610;28;20411;-63
2022/08/23 06:44:09;;;;;;;21.05;14.88;;;;;;;;;;5025272;28;20041;-63
2022/08/23 06:46:35;;;;;;;15.75;13.93;;;;;;;;;;5020926;28;20050;-63
2022/08/23 06:49:04;;;;;;;17.13;13.93;;;;;;;;;;5027831;28;20209;-63
2022/08/23 06:51:31;;;;;;;18.90;13.13;;;;;;;;;;5028580;28;20564;-63
2022/08/23 06:53:58;;;;;;;15.13;13.68;;;;;;;;;;5028534;28;20037;-63
2022/08/23 06:56:25;;;;;;;16.38;12.65;;;;;;;;;;5029517;28;20034;-63
2022/08/23 06:58:51;;;;;;;13.30;11.90;;;;;;;;;;5029007;28;20156;-63
2022/08/23 07:01:27;;;;;;;14.98;11.77;;;;;;;;;;5029966;28;20041;-62
2022/08/23 07:03:54;;;;;;;16.35;11.57;;;;;;;;;;5027819;28;20045;-63
2022/08/23 07:06:21;;;;;;;15.25;11.95;;;;;;;;;;5026850;28;20037;-63
2022/08/23 07:08:47;;;;;;;16.40;11.75;;;;;;;;;;5027057;28;20499;-63
2022/08/23 07:11:13;;;;;;;14.70;11.43;;;;;;;;;;5027214;28;20041;-63
2022/08/23 07:13:39;;;;;;;13.50;10.57;;;;;;;;;;5027300;28;20040;-63
2022/08/23 07:16:05;;;;;;;10.95;9.85;;;;;;;;;;5025473;28;20112;-63
2022/08/23 07:18:32;;;;;;;13.55;11.13;;;;;;;;;;5027901;28;20091;-63
2022/08/23 07:20:58;;;;;;;12.55;11.00;;;;;;;;;;5028076;28;20051;-63
2022/08/23 07:23:25;;;;;;;12.07;10.73;;;;;;;;;;5027024;28;20077;-63
2022/08/23 07:25:51;;;;;;;17.23;11.02;;;;;;;;;;5023385;28;20526;-63
2022/08/23 07:28:18;;;;;;;15.52;11.20;;;;;;;;;;5030719;28;20041;-64
2022/08/23 07:30:44;;;;;;;12.15;10.77;;;;;;;;;;5025497;28;20492;-63
2022/08/23 07:33:10;;;;;;;15.45;11.15;;;;;;;;;;5029355;28;20116;-63
2022/08/23 07:35:36;;;;;;;12.50;10.07;;;;;;;;;;5027138;28;20030;-63
2022/08/23 07:38:03;;;;;;;14.60;10.65;;;;;;;;;;5027586;28;20046;-63
2022/08/23 07:40:29;;;;;;;16.00;10.40;;;;;;;;;;5029063;28;20224;-63
2022/08/23 07:42:58;;;;;;;12.80;10.85;;;;;;;;;;5028878;28;20731;-64
2022/08/23 07:45:24;;;;;;;12.68;10.00;;;;;;;;;;5021672;28;20542;-63
2022/08/23 07:47:50;;;;;;;13.50;9.98;;;;;;;;;;5030526;28;20124;-63
2022/08/23 07:50:16;;;;;;;11.30;9.38;;;;;;;;;;5028596;28;20045;-63
2022/08/23 07:52:43;;;;;;;9.45;7.28;;;;;;;;;;5024936;28;20121;-63
2022/08/23 07:55:09;;;;;;;10.55;7.43;;;;;;;;;;5029658;28;20044;-63
2022/08/23 07:57:35;;;;;;;16.23;7.57;;;;;;;;;;5029973;28;20116;-63
2022/08/23 08:00:02;;;;;;;9.93;8.10;;;;;;;;;;5026286;28;20041;-63
2022/08/23 08:02:28;;;;;;;11.07;7.47;;;;;;;;;;5028527;28;20506;-61
2022/08/23 08:04:54;;;;;;;8.85;7.38;;;;;;;;;;5029024;28;20073;-61
2022/08/23 08:07:20;;;;;;;9.98;7.53;;;;;;;;;;5026665;28;20122;-61
2022/08/23 08:09:46;;;;;;;10.68;7.60;;;;;;;;;;5029071;28;20042;-61
2022/08/23 08:12:12;;;;;;;8.48;7.57;;;;;;;;;;5029544;28;20060;-61
2022/08/23 08:14:38;;;;;;;8.65;7.70;;;;;;;;;;5029842;28;20094;-61
2022/08/23 08:17:05;;;;;;;8.85;7.65;;;;;;;;;;5028423;28;20582;-61
2022/08/23 08:19:31;;;;;;;11.93;8.50;;;;;;;;;;5014746;28;20045;-61
2022/08/23 08:21:57;;;;;;;10.43;8.80;;;;;;;;;;5025909;28;20045;-61
2022/08/23 08:24:23;;;;;;;11.30;8.48;;;;;;;;;;5029106;28;20033;-61
2022/08/23 08:26:50;;;;;;;8.73;7.82;;;;;;;;;;5027940;28;20049;-61
2022/08/23 08:29:16;;;;;;;8.75;7.43;;;;;;;;;;5020899;28;20046;-61
2022/08/23 08:31:44;;;;;;;12.00;8.40;;;;;;;;;;5020469;28;20037;-61
2022/08/23 08:34:10;;;;;;;8.60;7.55;;;;;;;;;;5028078;28;20491;-61
2022/08/23 08:36:44;;;;;;;10.75;7.05;;;;;;;;;;5028518;28;20043;-61
2022/08/23 08:39:11;;;;;;;10.50;7.75;;;;;;;;;;5028825;28;20037;-61
2022/08/23 08:41:40;;;;;;;12.35;7.60;;;;;;;;;;5019652;28;20042;-61
2022/08/23 08:44:10;;;;;;;10.18;6.65;;;;;;;;;;5033804;28;20064;-61
2022/08/23 08:46:39;;;;;;;11.43;8.07;;;;;;;;;;5026639;28;20041;-60
2022/08/23 08:49:05;;;;;;;10.45;7.68;;;;;;;;;;5029869;28;20041;-61
2022/08/23 08:51:35;;;;;;;10.02;7.30;;;;;;;;;;5033330;28;20457;-61
2022/08/23 08:54:03;;;;;;;9.68;7.45;;;;;;;;;;5032514;28;20514;-61
2022/08/23 08:56:33;;;;;;;8.63;7.18;;;;;;;;;;5028502;28;20121;-62
2022/08/23 08:58:59;;;;;;;;;;;;;;;;;;5033316;28;20048;-62
2022/08/23 09:01:26;;;;;;;8.07;6.43;;;;;;;;;;5031897;28;20290;-62
2022/08/23 09:03:52;;;;;;;8.90;6.80;;;;;;;;;;5027625;28;20454;-62
2022/08/23 09:06:25;;;;;;;7.80;6.40;;;;;;;;;;5031202;28;20045;-62
2022/08/23 09:08:51;;;;;;;10.40;6.30;;;;;;;;;;5032389;28;20355;-62
2022/08/23 09:11:17;;;;;;;11.93;6.80;;;;;;;;;;5023561;28;20086;-63
2022/08/23 09:13:54;;;;;;;8.82;6.55;;;;;;;;;;5030226;28;21245;-62
2022/08/23 09:16:20;;;;;;;12.57;6.22;;;;;;;;;;5031717;28;20120;-62
2022/08/23 09:18:46;;;;;;;9.57;5.97;;;;;;;;;;5026733;28;20124;-62
2022/08/23 09:21:14;;;;;;;7.60;5.03;;;;;;;;;;5027601;28;20033;-62
2022/08/23 09:23:41;;;;;;;8.38;5.43;;;;;;;;;;5032951;28;20037;-62
2022/08/23 09:26:28;;;;;;;7.57;5.88;;;;;;;;;;5032367;28;20049;-63
2022/08/23 09:29:04;;;;;;;11.45;6.45;;;;;;;;;;5026421;28;20126;-62
2022/08/23 09:31:41;;;;;;;9.27;6.70;;;;;;;;;;5032984;28;20044;-62
2022/08/23 09:34:08;;;;;;;7.22;5.50;;;;;;;;;;5032488;28;20091;-62
2022/08/23 09:36:35;;;;;;;9.13;5.70;;;;;;;;;;5023699;28;20099;-62
2022/08/23 09:39:22;;;;;;;9.05;5.30;;;;;;;;;;5032819;28;20094;-63
2022/08/23 09:41:49;;;;;;;8.48;5.30;;;;;;;;;;5033113;28;20130;-63
2022/08/23 09:44:29;;;;;;;8.38;5.57;;;;;;;;;;5031344;28;20060;-62
2022/08/23 09:47:04;;;;;;;9.05;5.82;;;;;;;;;;5030672;28;20426;-62
2022/08/23 09:49:30;;;;;;;6.90;4.78;;;;;;;;;;5031422;28;20446;-62
2022/08/23 09:51:59;;;;;;;12.63;6.20;;;;;;;;;;5031719;28;20522;-62
2022/08/23 09:54:35;;;;;;;7.15;5.78;;;;;;;;;;5031303;28;20506;-62
2022/08/23 09:57:03;;;;;;;7.78;5.25;;;;;;;;;;5026093;28;20411;-62
2022/08/23 09:59:46;;;;;;;7.10;4.60;;;;;;;;;;5028810;28;20376;-62
2022/08/23 10:02:15;;;;;;;9.32;4.95;;;;;;;;;;5026533;23;20661;-69
2022/08/23 10:04:46;;;;;;;10.48;5.72;;;;;;;;;;4988586;28;20065;-66
2022/08/23 10:07:41;;;;;;;8.90;5.85;;;;;;;;;;5006092;28;20069;-67
2022/08/23 10:10:17;;;;;;;8.23;5.20;;;;;;;;;;4998043;28;20100;-67
2022/08/23 10:12:43;;;;;;;8.65;5.38;;;;;;;;;;5010350;28;20038;-68
2022/08/23 10:15:09;;;;;;;6.72;4.95;;;;;;;;;;5008374;28;20080;-68
2022/08/23 10:17:43;;;;;;;7.40;4.60;;;;;;;;;;5005786;28;20787;-68
2022/08/23 10:20:28;;;;;;;9.50;5.05;;;;;;;;;;5009833;28;20038;-67
2022/08/23 10:22:57;;;;;;;5.93;4.28;;;;;;;;;;5006147;28;20034;-68
2022/08/23 10:25:32;;;;;;;6.80;4.90;;;;;;;;;;5006705;28;20093;-68
2022/08/23 10:31:18;;;;;;;6.13;4.32;;;;;;;;;;5003710;28;20420;-68
2022/08/23 10:33:49;;;;;;;5.72;3.92;;;;;;;;;;4934405;28;20039;-68
2022/08/23 10:36:34;;;;;;;5.45;4.00;;;;;;;;;;5007814;28;20442;-68
2022/08/23 10:39:07;;;;;;;7.57;4.22;;;;;;;;;;5010904;28;20169;-68
2022/08/23 10:41:36;;;;;;;6.93;4.25;;;;;;;;;;5003719;28;20041;-68
2022/08/23 10:44:20;;;;;;;4.28;3.67;;;;;;;;;;5011395;28;20616;-68
2022/08/23 10:46:50;;;;;;;6.95;4.30;;;;;;;;;;5005788;28;20042;-68
2022/08/23 10:49:16;;;;;;;7.17;4.03;;;;;;;;;;4991797;28;20052;-68
2022/08/23 10:51:44;;;;;;;7.93;3.80;;;;;;;;;;5005017;28;20431;-68
2022/08/23 10:54:17;;;;;;;6.53;3.80;;;;;;;;;;5010386;28;20038;-68
2022/08/23 10:56:43;;;;;;;8.35;3.65;;;;;;;;;;5009641;28;20045;-68
2022/08/23 10:59:13;;;;;;;5.75;3.30;;;;;;;;;;5007200;28;20052;-69
2022/08/23 11:01:45;;;;;;;7.30;4.00;;;;;;;;;;5011970;28;20038;-69
2022/08/23 11:04:19;;;;;;;6.05;2.92;;;;;;;;;;5007779;28;20050;-69
2022/08/23 11:06:47;;;;;;;5.72;3.38;;;;;;;;;;5007694;28;20038;-69
2022/08/23 11:09:17;;;;;;;8.05;3.58;;;;;;;;;;5007730;28;20034;-68
2022/08/23 11:11:48;;;;;;;7.43;3.58;;;;;;;;;;5009485;28;20034;-68
2022/08/23 11:14:26;;;;;;;8.77;3.97;;;;;;;;;;5010493;28;20045;-68
2022/08/23 11:16:58;;;;;;;7.88;4.97;;;;;;;;;;5008810;28;20046;-68
2022/08/23 11:19:43;;;;;;;6.60;4.35;;;;;;;;;;5004578;28;20097;-62
2022/08/23 11:22:13;;;;;;;5.97;3.60;;;;;;;;;;5000176;28;20478;-62
2022/08/23 11:24:50;;;;;;;8.35;3.15;;;;;;;;;;5006424;28;20036;-62
2022/08/23 11:27:26;;;;;;;6.43;3.38;;;;;;;;;;5001988;28;20053;-63
2022/08/23 11:29:52;;;;;;;5.63;3.55;;;;;;;;;;5005937;28;20038;-63
2022/08/23 11:32:25;;;;;;;4.25;2.88;;;;;;;;;;5005463;28;20038;-62
2022/08/23 11:34:59;;;;;;;6.00;2.90;;;;;;;;;;5005167;28;20038;-62
2022/08/23 11:37:27;;;;;;;4.85;3.00;;;;;;;;;;4992728;28;20049;-62
2022/08/23 11:39:56;;;;;;;5.53;3.17;;;;;;;;;;5006291;28;20084;-62
2022/08/23 11:42:23;;;;;;;6.15;3.25;;;;;;;;;;5007559;28;20121;-63
2022/08/23 11:44:50;;;;;;;5.65;3.15;;;;;;;;;;5011417;28;20046;-63
2022/08/23 11:47:26;;;;;;;5.97;3.20;;;;;;;;;;5009656;28;20084;-62
2022/08/23 11:50:18;;;;;;;5.90;3.20;;;;;;;;;;5006956;28;20042;-63
2022/08/23 11:52:50;;;;;;;5.90;3.40;;;;;;;;;;5010650;28;20513;-62
2022/08/23 11:55:34;;;;;;;9.60;3.42;;;;;;;;;;5009699;28;20034;-62
2022/08/23 11:58:19;;;;;;;6.38;2.70;;;;;;;;;;5004650;28;20038;-63
2022/08/23 12:01:07;;;;;;;7.35;3.13;;;;;;;;;;5012299;28;20030;-63
2022/08/23 12:03:52;;;;;;;5.15;2.92;;;;;;;;;;4988499;28;20073;-62
2022/08/23 12:06:36;;;;;;;4.30;2.72;;;;;;;;;;5003965;28;20046;-62
2022/08/23 12:09:09;;;;;;;5.95;2.85;;;;;;;;;;5009854;28;20103;-63
2022/08/23 12:11:54;;;;;;;4.65;2.70;;;;;;;;;;5001826;28;20070;-63
2022/08/23 12:14:40;;;;;;;4.45;2.78;;;;;;;;;;5010002;28;20041;-63
2022/08/23 12:17:12;;;;;;;6.15;2.80;;;;;;;;;;4994010;28;20503;-62
2022/08/23 12:19:41;;;;;;;5.00;2.97;;;;;;;;;;5012307;28;20034;-63
2022/08/23 12:22:12;;;;;;;4.18;2.60;;;;;;;;;;5012417;28;20068;-62
2022/08/23 12:24:38;;;;;;;;;;;;;;;;;;5013392;28;20443;-63
2022/08/23 12:27:07;;;;;;;4.45;2.75;;;;;;;;;;5014447;28;19935;-63
2022/08/23 12:29:44;;;;;;;6.47;3.08;;;;;;;;;;5012300;28;20033;-63
2022/08/23 12:32:17;;;;;;;6.60;2.85;;;;;;;;;;5013836;28;20041;-63
2022/08/23 12:34:45;;;;;;;4.93;3.03;;;;;;;;;;5009999;28;20069;-63
2022/08/23 12:37:26;;;;;;;6.95;2.85;;;;;;;;;;5009482;28;20467;-62
2022/08/23 12:39:54;;;;;;;4.90;2.78;;;;;;;;;;5014429;28;20074;-63
2022/08/23 12:42:28;;;;;;;7.15;2.72;;;;;;;;;;5012546;28;20049;-63
2022/08/23 12:45:00;;;;;;;5.72;2.83;;;;;;;;;;5011905;28;20048;-63
2022/08/23 12:47:26;;;;;;;4.18;2.70;;;;;;;;;;5011786;28;20163;-63
2022/08/23 12:49:54;;;;;;;6.85;2.80;;;;;;;;;;5017117;28;20041;-63
2022/08/23 12:52:23;;;;;;;4.97;2.58;;;;;;;;;;5009401;28;20045;-62
2022/08/23 12:54:53;;;;;;;4.38;2.85;;;;;;;;;;5013107;28;20443;-63
2022/08/23 12:57:24;;;;;;;5.95;2.92;;;;;;;;;;5013498;28;20049;-63
2022/08/23 12:59:57;;;;;;;5.22;3.15;;;;;;;;;;5011408;28;20045;-63
2022/08/23 13:02:25;;;;;;;5.78;2.63;;;;;;;;;;5010686;28;20033;-63
2022/08/23 13:04:51;;;;;;;5.40;2.83;;;;;;;;;;5006812;28;20464;-63
2022/08/23 13:07:20;;;;;;;6.97;2.80;;;;;;;;;;5012120;28;20049;-63
2022/08/23 13:09:47;;;;;;;4.25;2.70;;;;;;;;;;5016797;28;20034;-63
2022/08/23 13:12:14;;;;;;;4.10;2.70;;;;;;;;;;5014072;28;20038;-62
2022/08/23 13:14:40;;;;;;;7.13;2.88;;;;;;;;;;5001957;28;20048;-63
2022/08/23 13:17:12;;;;;;;7.90;2.75;;;;;;;;;;5011500;28;20034;-63
2022/08/23 13:19:39;;;;;;;5.30;2.35;;;;;;;;;;5001468;28;20049;-63
2022/08/23 13:22:14;;;;;;;7.30;3.20;;;;;;;;;;5007937;28;20096;-63
2022/08/23 13:24:45;;;;;;;6.15;2.80;;;;;;;;;;5011620;28;20084;-63
2022/08/23 13:27:16;;;;;;;4.85;2.67;;;;;;;;;;5006379;28;20105;-63
2022/08/23 13:30:08;;;;;;;5.13;2.80;;;;;;;;;;5008993;28;20040;-63
2022/08/23 13:32:40;;;;;;;5.85;2.90;;;;;;;;;;4976578;28;20054;-63
2022/08/23 13:35:29;;;;;;;5.50;2.65;;;;;;;;;;5011152;28;20084;-64
2022/08/23 13:38:16;;;;;;;5.15;2.80;;;;;;;;;;5008717;28;20077;-64
2022/08/23 13:40:52;;;;;;;4.85;3.08;;;;;;;;;;5017242;28;20121;-64
2022/08/23 13:43:39;;;;;;;5.63;2.85;;;;;;;;;;5003029;28;20049;-63
2022/08/23 13:46:16;;;;;;;7.72;2.88;;;;;;;;;;4994908;28;20092;-63
2022/08/23 13:48:45;;;;;;;5.25;2.70;;;;;;;;;;5011736;28;20045;-63
2022/08/23 13:51:24;;;;;;;4.57;3.15;;;;;;;;;;5014375;28;20041;-63
2022/08/23 13:53:50;;;;;;;4.53;2.90;;;;;;;;;;5001727;28;20050;-63
2022/08/23 13:56:16;;;;;;;7.15;2.60;;;;;;;;;;5010334;28;20041;-63
2022/08/23 13:58:42;;;;;;;8.45;2.75;;;;;;;;;;5007321;28;20041;-63
2022/08/23 14:01:15;;;;;;;6.15;2.78;;;;;;;;;;5010213;28;20045;-63
2022/08/23 14:03:41;;;;;;;6.03;3.08;;;;;;;;;;5009336;28;20049;-63
2022/08/23 14:06:07;;;;;;;4.13;2.55;;;;;;;;;;5007144;28;20037;-63
2022/08/23 14:08:33;;;;;;;4.00;2.35;;;;;;;;;;5004433;28;20034;-63
2022/08/23 14:10:59;;;;;;;5.15;2.70;;;;;;;;;;5006094;28;20041;-64
2022/08/23 14:13:28;;;;;;;5.32;2.80;;;;;;;;;;5003404;28;20125;-63
2022/08/23 14:15:55;;;;;;;6.25;3.03;;;;;;;;;;5002500;28;20046;-64
2022/08/23 14:18:21;;;;;;;5.00;2.88;;;;;;;;;;5006178;28;20042;-63
2022/08/23 14:20:47;;;;;;;4.97;3.10;;;;;;;;;;5008474;28;20446;-64
2022/08/23 14:23:13;;;;;;;5.13;3.45;;;;;;;;;;5006620;28;20041;-63
2022/08/23 14:25:39;;;;;;;6.10;2.90;;;;;;;;;;5003880;28;20038;-64
2022/08/23 14:28:05;;;;;;;4.88;3.30;;;;;;;;;;5003744;28;20034;-63
2022/08/23 14:30:34;;;;;;;4.97;3.00;;;;;;;;;;5005982;28;20964;-63
2022/08/23 14:33:00;;;;;;;4.75;3.05;;;;;;;;;;5006522;28;20065;-63
2022/08/23 14:35:26;;;;;;;7.07;3.25;;;;;;;;;;5009656;28;20038;-63
2022/08/23 14:37:52;;;;;;;5.55;2.92;;;;;;;;;;5004390;28;20121;-63
2022/08/23 14:40:19;;;;;;;5.65;3.40;;;;;;;;;;5003808;28;20041;-63
2022/08/23 14:42:45;;;;;;;5.30;3.10;;;;;;;;;;5004200;28;20044;-63
2022/08/23 14:45:12;;;;;;;6.05;3.20;;;;;;;;;;4999328;28;20046;-63
2022/08/23 14:47:38;;;;;;;5.97;3.42;;;;;;;;;;5005507;28;20045;-63
2022/08/23 14:50:05;;;;;;;7.10;3.20;;;;;;;;;;5007270;28;20408;-63
2022/08/23 14:52:31;;;;;;;6.35;3.40;;;;;;;;;;5012878;28;20121;-63
2022/08/23 14:54:57;;;;;;;5.53;3.05;;;;;;;;;;5011268;28;20050;-63
2022/08/23 14:57:23;;;;;;;5.90;3.10;;;;;;;;;;5011760;28;20048;-63